Time;durP1;ratioP1;P1;durP2;ratioP2;P2;SDS_P1;SDS_P2;PMS_P1;PMS_P2;Temp;Humidity;BMP_temperature;BMP_pressure;BME280_temperature;BME280_humidity;BME280_pressure;Samples;Min_cycle;Max_cycle;Signal;HPM_P1;HPM_P2
2024/01/06 00:01:48;;;;;;;12.43;8.07;;;3.90;99.90;;;;;;4985309;28;20085;-36
2024/01/06 00:04:14;;;;;;;11.77;8.20;;;3.90;99.90;;;;;;4985370;28;20066;-34
2024/01/06 00:06:40;;;;;;;12.73;8.45;;;3.80;99.90;;;;;;4981534;28;20398;-35
2024/01/06 00:09:06;;;;;;;11.98;7.70;;;3.80;99.90;;;;;;4982671;28;20373;-34
2024/01/06 00:11:31;;;;;;;10.98;7.45;;;3.80;99.90;;;;;;4983167;28;20165;-43
2024/01/06 00:13:57;;;;;;;11.98;7.80;;;3.80;99.90;;;;;;4982324;28;20141;-35
2024/01/06 00:16:23;;;;;;;13.45;8.10;;;3.80;99.90;;;;;;4984084;28;20408;-35
2024/01/06 00:18:49;;;;;;;12.32;8.15;;;3.80;99.90;;;;;;4986793;28;20061;-35
2024/01/06 00:21:14;;;;;;;14.20;8.18;;;3.70;99.90;;;;;;4986517;28;20054;-34
2024/01/06 00:23:41;;;;;;;12.57;8.18;;;3.70;99.90;;;;;;4984951;28;20050;-35
2024/01/06 00:26:07;;;;;;;13.57;8.73;;;3.70;99.90;;;;;;4986029;28;20056;-34
2024/01/06 00:28:32;;;;;;;14.05;8.15;;;3.70;99.90;;;;;;4982768;28;20053;-35
2024/01/06 00:30:58;;;;;;;14.40;8.38;;;3.70;99.90;;;;;;4981326;28;20145;-40
2024/01/06 00:33:24;;;;;;;13.45;8.20;;;3.60;99.90;;;;;;4984939;28;20062;-34
2024/01/06 00:35:49;;;;;;;13.43;8.95;;;3.60;99.90;;;;;;4980959;28;20058;-35
2024/01/06 00:38:15;;;;;;;13.27;8.68;;;3.60;99.90;;;;;;4980969;28;20058;-36
2024/01/06 00:40:41;;;;;;;14.20;8.20;;;3.60;99.90;;;;;;4986687;28;20137;-35
2024/01/06 00:43:06;;;;;;;12.73;8.13;;;3.60;99.90;;;;;;4982286;28;20080;-35
2024/01/06 00:45:32;;;;;;;14.27;8.55;;;3.60;99.90;;;;;;4982404;28;20046;-37
2024/01/06 00:47:58;;;;;;;12.18;8.13;;;3.50;99.90;;;;;;4981762;28;20071;-36
2024/01/06 00:50:23;;;;;;;13.23;8.57;;;3.50;99.90;;;;;;4982896;28;20054;-35
2024/01/06 00:52:52;;;;;;;17.17;8.73;;;3.50;99.90;;;;;;4980316;28;20476;-36
2024/01/06 00:55:19;;;;;;;12.23;8.23;;;3.60;99.90;;;;;;4981087;28;20051;-36
2024/01/06 00:57:44;;;;;;;13.02;8.55;;;3.60;99.90;;;;;;4984111;28;20062;-35
2024/01/06 01:00:11;;;;;;;13.75;8.70;;;3.60;99.90;;;;;;4983366;28;20042;-36
2024/01/06 01:02:36;;;;;;;12.48;7.97;;;3.60;99.90;;;;;;4984293;28;20042;-36
2024/01/06 01:05:02;;;;;;;11.85;7.82;;;3.60;99.90;;;;;;4981930;28;20491;-35
2024/01/06 01:07:28;;;;;;;10.93;7.28;;;3.60;99.90;;;;;;4976192;28;20128;-35
2024/01/06 01:09:56;;;;;;;15.07;9.00;;;3.60;99.90;;;;;;4980985;28;20137;-35
2024/01/06 01:12:22;;;;;;;11.82;7.70;;;3.60;99.90;;;;;;4982167;28;20054;-36
2024/01/06 01:14:48;;;;;;;13.75;8.07;;;3.60;99.90;;;;;;4983317;28;20065;-36
2024/01/06 01:17:13;;;;;;;12.20;7.82;;;3.50;99.90;;;;;;4984799;28;20097;-35
2024/01/06 01:19:39;;;;;;;12.70;8.13;;;3.50;99.90;;;;;;4980009;28;20599;-36
2024/01/06 01:22:05;;;;;;;15.25;8.95;;;3.50;99.90;;;;;;4984023;28;20054;-36
2024/01/06 01:24:30;;;;;;;12.65;8.27;;;3.40;99.90;;;;;;4985282;28;20046;-37
2024/01/06 01:26:56;;;;;;;14.10;8.82;;;3.40;99.90;;;;;;4984341;28;20042;-35
2024/01/06 01:29:22;;;;;;;14.07;8.25;;;3.40;99.90;;;;;;4987836;28;20054;-36
2024/01/06 01:31:47;;;;;;;14.48;9.45;;;3.40;99.90;;;;;;4984781;28;20129;-35
2024/01/06 01:34:13;;;;;;;12.73;8.45;;;3.30;99.90;;;;;;4981154;28;20050;-35
2024/01/06 01:36:39;;;;;;;14.05;8.68;;;3.40;99.90;;;;;;4983822;28;20167;-36
2024/01/06 01:39:05;;;;;;;13.80;9.18;;;3.30;99.90;;;;;;4981899;28;20105;-35
2024/01/06 01:41:31;;;;;;;17.10;10.23;;;3.30;99.90;;;;;;4980897;28;20942;-36
2024/01/06 01:43:59;;;;;;;17.75;9.98;;;3.30;99.90;;;;;;4980676;28;20047;-35
2024/01/06 01:46:29;;;;;;;14.88;9.23;;;3.30;99.90;;;;;;4980274;28;20478;-36
2024/01/06 01:48:56;;;;;;;16.08;10.20;;;3.20;99.90;;;;;;4982139;28;20054;-37
2024/01/06 01:51:23;;;;;;;15.40;9.98;;;3.20;99.90;;;;;;4984785;28;20054;-35
2024/01/06 01:53:49;;;;;;;17.08;10.57;;;3.20;99.90;;;;;;4979559;28;20045;-35
2024/01/06 01:56:16;;;;;;;15.52;10.23;;;3.20;99.90;;;;;;4984563;28;20058;-36
2024/01/06 01:58:42;;;;;;;18.52;10.77;;;3.20;99.90;;;;;;4984389;28;20096;-36
2024/01/06 02:01:09;;;;;;;17.40;11.07;;;3.20;99.90;;;;;;4981996;28;20058;-36
2024/01/06 02:03:35;;;;;;;16.25;10.75;;;3.20;99.90;;;;;;4980357;28;20571;-36
2024/01/06 02:06:01;;;;;;;20.40;12.32;;;3.20;99.90;;;;;;4984761;28;20050;-35
2024/01/06 02:08:27;;;;;;;17.40;12.90;;;3.20;99.90;;;;;;4982865;28;20823;-36
2024/01/06 02:10:56;;;;;;;20.52;14.25;;;3.10;99.90;;;;;;4963322;28;20551;-35
2024/01/06 02:13:23;;;;;;;22.65;14.75;;;3.10;99.90;;;;;;4984305;28;20050;-35
2024/01/06 02:15:49;;;;;;;19.83;14.32;;;3.10;99.90;;;;;;4982792;28;20104;-35
2024/01/06 02:18:15;;;;;;;24.10;14.65;;;3.10;99.90;;;;;;4981383;28;20071;-36
2024/01/06 02:20:44;;;;;;;20.67;14.68;;;3.10;99.90;;;;;;4979979;28;20062;-36
2024/01/06 02:23:09;;;;;;;19.38;13.65;;;3.10;99.90;;;;;;4973157;28;20499;-35
2024/01/06 02:25:35;;;;;;;21.15;13.98;;;3.10;99.90;;;;;;4984553;28;20054;-36
2024/01/06 02:28:01;;;;;;;21.48;13.85;;;3.10;99.90;;;;;;4988270;28;20045;-35
2024/01/06 02:30:27;;;;;;;20.05;13.60;;;3.10;99.90;;;;;;4990553;28;20145;-36
2024/01/06 02:32:52;;;;;;;22.20;14.38;;;3.00;99.90;;;;;;4985670;28;20054;-36
2024/01/06 02:35:18;;;;;;;22.52;14.35;;;3.00;99.90;;;;;;4984283;28;20061;-34
2024/01/06 02:37:44;;;;;;;19.63;13.48;;;3.00;99.90;;;;;;4989968;28;20419;-36
2024/01/06 02:40:10;;;;;;;18.77;12.60;;;3.10;99.90;;;;;;4985110;28;20466;-36
2024/01/06 02:42:36;;;;;;;18.20;12.13;;;3.10;99.90;;;;;;4986771;28;20053;-35
2024/01/06 02:45:02;;;;;;;20.30;13.15;;;3.10;99.90;;;;;;4985088;28;20057;-35
2024/01/06 02:47:28;;;;;;;17.75;12.35;;;3.10;99.90;;;;;;4989244;28;20420;-35
2024/01/06 02:49:54;;;;;;;19.73;13.00;;;3.00;99.90;;;;;;4987446;28;20504;-34
2024/01/06 02:52:19;;;;;;;21.10;13.32;;;3.00;99.90;;;;;;4987113;28;20063;-34
2024/01/06 02:54:45;;;;;;;19.50;12.95;;;3.00;99.90;;;;;;4970849;28;20431;-35
2024/01/06 02:57:13;;;;;;;19.63;13.10;;;3.10;99.90;;;;;;4985252;28;20058;-34
2024/01/06 02:59:39;;;;;;;18.70;12.40;;;3.10;99.90;;;;;;4989006;28;20052;-35
2024/01/06 03:02:05;;;;;;;24.67;14.77;;;3.10;99.90;;;;;;4984507;28;20425;-34
2024/01/06 03:04:30;;;;;;;25.77;14.88;;;3.00;99.90;;;;;;4988443;28;20169;-35
2024/01/06 03:06:56;;;;;;;18.90;13.05;;;3.00;99.90;;;;;;4987899;28;20050;-36
2024/01/06 03:09:22;;;;;;;16.30;11.32;;;3.00;99.90;;;;;;4986060;28;20065;-36
2024/01/06 03:11:47;;;;;;;19.80;12.85;;;3.00;99.90;;;;;;4970851;28;20407;-35
2024/01/06 03:14:13;;;;;;;22.45;13.77;;;3.00;99.90;;;;;;4966365;28;20057;-35
2024/01/06 03:16:39;;;;;;;20.60;12.55;;;3.00;99.90;;;;;;4989738;28;20046;-36
2024/01/06 03:19:05;;;;;;;20.50;13.88;;;3.00;99.90;;;;;;4987016;28;20070;-35
2024/01/06 03:21:31;;;;;;;18.88;12.52;;;3.00;99.90;;;;;;4969864;28;20204;-34
2024/01/06 03:23:57;;;;;;;20.80;12.73;;;3.00;99.90;;;;;;4973358;28;20173;-34
2024/01/06 03:26:23;;;;;;;20.20;12.88;;;3.00;99.90;;;;;;4964641;28;20043;-34
2024/01/06 03:28:49;;;;;;;21.27;13.18;;;3.00;99.90;;;;;;4965211;28;20055;-34
2024/01/06 03:31:15;;;;;;;20.35;12.95;;;3.00;99.90;;;;;;4956975;28;20058;-33
2024/01/06 03:33:42;;;;;;;17.13;11.77;;;3.00;99.90;;;;;;4966948;28;20488;-35
2024/01/06 03:36:08;;;;;;;16.80;11.48;;;3.00;99.90;;;;;;4959848;28;20059;-34
2024/01/06 03:38:34;;;;;;;16.55;11.63;;;3.00;99.90;;;;;;4968861;28;20436;-35
2024/01/06 03:41:00;;;;;;;16.77;12.20;;;3.00;99.90;;;;;;4963843;28;20055;-34
2024/01/06 03:43:25;;;;;;;20.80;13.68;;;2.90;99.90;;;;;;4966572;28;20046;-51
2024/01/06 03:45:51;;;;;;;18.33;13.10;;;2.90;99.90;;;;;;4972324;28;20059;-35
2024/01/06 03:48:17;;;;;;;19.95;13.93;;;2.90;99.90;;;;;;4965229;28;20443;-34
2024/01/06 03:50:42;;;;;;;17.38;12.80;;;2.90;99.90;;;;;;4964047;28;20046;-34
2024/01/06 03:53:08;;;;;;;17.10;12.60;;;2.90;99.90;;;;;;4965161;28;20059;-35
2024/01/06 03:55:34;;;;;;;18.77;13.20;;;2.90;99.90;;;;;;4969616;28;20070;-35
2024/01/06 03:57:59;;;;;;;18.45;12.52;;;2.90;99.90;;;;;;4963644;28;20073;-35
2024/01/06 04:00:26;;;;;;;17.80;12.77;;;2.90;99.90;;;;;;4965003;28;20440;-35
2024/01/06 04:02:52;;;;;;;16.27;12.10;;;2.90;99.90;;;;;;4962784;28;20416;-34
2024/01/06 04:05:18;;;;;;;17.70;11.80;;;2.90;99.90;;;;;;4959678;28;20059;-35
2024/01/06 04:07:43;;;;;;;17.83;12.70;;;2.80;99.90;;;;;;4973179;28;20455;-35
2024/01/06 04:10:09;;;;;;;16.83;11.68;;;2.80;99.90;;;;;;4962038;28;20121;-34
2024/01/06 04:12:35;;;;;;;15.82;11.02;;;2.80;99.90;;;;;;4966973;28;20077;-35
2024/01/06 04:15:00;;;;;;;15.63;11.15;;;2.80;99.90;;;;;;4964004;28;20050;-34
2024/01/06 04:17:26;;;;;;;16.63;12.15;;;2.80;99.90;;;;;;4962875;28;20121;-35
2024/01/06 04:19:53;;;;;;;19.48;12.30;;;2.80;99.90;;;;;;4975377;28;20046;-36
2024/01/06 04:22:19;;;;;;;17.08;11.45;;;2.80;99.90;;;;;;4983951;28;20096;-34
2024/01/06 04:24:44;;;;;;;15.43;11.18;;;2.80;99.90;;;;;;4984733;28;20042;-34
2024/01/06 04:27:10;;;;;;;18.80;13.20;;;2.80;99.90;;;;;;4985981;28;20069;-34
2024/01/06 04:29:36;;;;;;;16.90;11.52;;;2.80;99.90;;;;;;4986687;28;20054;-35
2024/01/06 04:32:02;;;;;;;18.73;12.30;;;2.80;99.90;;;;;;4984738;28;20062;-34
2024/01/06 04:34:28;;;;;;;17.10;11.15;;;2.80;99.90;;;;;;4984632;28;20137;-34
2024/01/06 04:36:53;;;;;;;14.70;10.10;;;2.70;99.90;;;;;;4968915;28;20040;-34
2024/01/06 04:39:19;;;;;;;14.90;10.55;;;2.70;99.90;;;;;;4982530;28;20054;-34
2024/01/06 04:41:45;;;;;;;20.67;11.48;;;2.70;99.90;;;;;;4986440;28;20152;-34
2024/01/06 04:44:10;;;;;;;16.85;10.70;;;2.70;99.90;;;;;;4979558;28;20133;-34
2024/01/06 04:46:36;;;;;;;16.52;10.95;;;2.70;99.90;;;;;;4983746;28;20050;-34
2024/01/06 04:49:02;;;;;;;17.20;10.40;;;2.70;99.90;;;;;;4987008;28;20112;-34
2024/01/06 04:51:28;;;;;;;15.32;10.95;;;2.70;99.90;;;;;;4970694;28;20092;-35
2024/01/06 04:53:53;;;;;;;20.33;12.13;;;2.70;99.90;;;;;;4966734;28;20046;-34
2024/01/06 04:56:19;;;;;;;17.70;11.55;;;2.70;99.90;;;;;;4979230;28;20050;-35
2024/01/06 04:58:45;;;;;;;15.93;11.13;;;2.60;99.90;;;;;;4985560;28;20098;-34
2024/01/06 05:01:11;;;;;;;16.50;10.88;;;2.60;99.90;;;;;;4982377;28;20061;-35
2024/01/06 05:03:37;;;;;;;17.00;11.23;;;2.70;99.90;;;;;;4981739;28;20043;-34
2024/01/06 05:06:03;;;;;;;15.55;10.75;;;2.70;99.90;;;;;;4956408;28;20047;-33
2024/01/06 05:08:30;;;;;;;15.45;10.80;;;2.70;99.90;;;;;;4971209;28;20057;-34
2024/01/06 05:10:56;;;;;;;15.40;10.57;;;2.60;99.90;;;;;;4982687;28;20062;-33
2024/01/06 05:13:22;;;;;;;18.25;12.38;;;2.60;99.90;;;;;;4983881;28;20511;-34
2024/01/06 05:15:48;;;;;;;16.70;11.43;;;2.60;99.90;;;;;;4960107;28;20039;-33
2024/01/06 05:18:13;;;;;;;17.48;11.85;;;2.60;99.90;;;;;;4983510;28;20062;-34
2024/01/06 05:20:40;;;;;;;17.50;11.98;;;2.70;99.90;;;;;;4986049;28;20050;-34
2024/01/06 05:23:07;;;;;;;21.38;12.20;;;2.70;99.90;;;;;;4982379;28;20145;-33
2024/01/06 05:25:32;;;;;;;16.70;11.20;;;2.70;99.90;;;;;;4964980;28;20523;-35
2024/01/06 05:27:58;;;;;;;17.17;10.95;;;2.60;99.90;;;;;;4983087;28;20050;-34
2024/01/06 05:30:24;;;;;;;18.30;10.93;;;2.60;99.90;;;;;;4980833;28;20724;-35
2024/01/06 05:32:49;;;;;;;17.65;11.50;;;2.60;99.90;;;;;;4981392;28;20057;-35
2024/01/06 05:35:18;;;;;;;19.90;11.88;;;2.50;99.90;;;;;;4983754;28;20416;-35
2024/01/06 05:37:44;;;;;;;18.98;12.18;;;2.50;99.90;;;;;;4986823;28;20057;-35
2024/01/06 05:40:11;;;;;;;19.58;12.75;;;2.50;99.90;;;;;;4985288;28;20420;-35
2024/01/06 05:42:36;;;;;;;19.77;12.07;;;2.50;99.90;;;;;;4971132;28;20038;-35
2024/01/06 05:45:02;;;;;;;17.52;11.13;;;2.50;99.90;;;;;;4986645;28;20104;-34
2024/01/06 05:47:28;;;;;;;17.20;10.48;;;2.50;99.90;;;;;;4982224;28;20716;-35
2024/01/06 05:49:54;;;;;;;16.30;10.25;;;2.50;99.90;;;;;;4980259;28;20245;-35
2024/01/06 05:52:19;;;;;;;15.25;9.85;;;2.50;99.90;;;;;;4983107;28;20058;-34
2024/01/06 05:54:45;;;;;;;20.77;11.82;;;2.50;99.90;;;;;;4982680;28;20053;-34
2024/01/06 05:57:11;;;;;;;23.00;12.30;;;2.50;99.90;;;;;;4969885;28;20050;-36
2024/01/06 05:59:37;;;;;;;17.95;11.10;;;2.40;99.90;;;;;;4982835;28;20506;-35
2024/01/06 06:02:03;;;;;;;19.10;11.05;;;2.40;99.90;;;;;;4983766;28;20046;-35
2024/01/06 06:04:29;;;;;;;18.45;11.25;;;2.40;99.90;;;;;;4984153;28;20180;-35
2024/01/06 06:06:54;;;;;;;16.60;9.73;;;2.30;99.90;;;;;;4984814;28;20061;-35
2024/01/06 06:09:21;;;;;;;17.58;10.90;;;2.30;99.90;;;;;;4966818;28;20061;-36
2024/01/06 06:11:48;;;;;;;15.73;10.13;;;2.30;99.90;;;;;;4986625;28;20484;-35
2024/01/06 06:14:14;;;;;;;16.95;10.30;;;2.30;99.90;;;;;;4985246;28;20050;-35
2024/01/06 06:16:39;;;;;;;15.35;9.18;;;2.30;99.90;;;;;;4986454;28;20522;-36
2024/01/06 06:19:06;;;;;;;15.57;10.95;;;2.20;99.90;;;;;;4982723;28;20116;-35
2024/01/06 06:21:31;;;;;;;19.02;12.52;;;2.30;99.90;;;;;;4981676;28;20092;-36
2024/01/06 06:23:57;;;;;;;21.88;12.88;;;2.30;99.90;;;;;;4987812;28;20046;-35
2024/01/06 06:26:23;;;;;;;20.65;12.40;;;2.30;99.90;;;;;;4984381;28;20050;-35
2024/01/06 06:28:48;;;;;;;17.67;11.23;;;2.30;99.90;;;;;;4984942;28;21637;-36
2024/01/06 06:31:14;;;;;;;17.65;11.38;;;2.30;99.90;;;;;;4983584;28;20149;-36
2024/01/06 06:33:40;;;;;;;17.15;10.70;;;2.30;99.90;;;;;;4984279;28;20046;-35
2024/01/06 06:36:06;;;;;;;20.65;12.40;;;2.30;99.90;;;;;;4983106;28;20050;-35
2024/01/06 06:38:31;;;;;;;20.10;11.88;;;2.30;99.90;;;;;;4985174;28;20054;-36
2024/01/06 06:40:57;;;;;;;19.45;11.63;;;2.30;99.90;;;;;;4952397;28;20047;-35
2024/01/06 06:43:23;;;;;;;22.40;12.82;;;2.30;99.90;;;;;;4963571;28;20073;-36
2024/01/06 06:45:48;;;;;;;20.85;12.52;;;2.30;99.90;;;;;;4983408;28;20046;-34
2024/01/06 06:48:14;;;;;;;18.52;12.15;;;2.30;99.90;;;;;;4979856;28;20428;-35
2024/01/06 06:50:41;;;;;;;19.45;12.45;;;2.30;99.90;;;;;;4987010;28;20054;-36
2024/01/06 06:53:07;;;;;;;24.58;12.80;;;2.30;99.90;;;;;;4982351;28;20061;-36
2024/01/06 06:55:33;;;;;;;21.48;12.95;;;2.30;99.90;;;;;;4984956;28;20404;-35
2024/01/06 06:57:58;;;;;;;22.25;13.23;;;2.20;99.90;;;;;;4978024;28;20051;-35
2024/01/06 07:00:24;;;;;;;30.77;15.60;;;2.20;99.90;;;;;;4984059;28;20349;-35
2024/01/06 07:02:50;;;;;;;28.52;15.05;;;2.30;99.90;;;;;;4982327;28;20054;-35
2024/01/06 07:05:17;;;;;;;21.65;12.75;;;2.30;99.90;;;;;;4984581;28;20061;-35
2024/01/06 07:07:46;;;;;;;22.10;12.55;;;2.30;99.90;;;;;;4983148;28;20046;-35
2024/01/06 07:10:12;;;;;;;18.52;11.52;;;2.30;99.90;;;;;;4988335;28;20057;-34
2024/01/06 07:12:38;;;;;;;19.25;11.70;;;2.20;99.90;;;;;;4987587;28;20149;-35
2024/01/06 07:15:04;;;;;;;20.13;12.57;;;2.30;99.90;;;;;;4965811;28;20136;-35
2024/01/06 07:17:30;;;;;;;19.17;11.93;;;2.20;99.90;;;;;;4980180;28;20077;-35
2024/01/06 07:19:56;;;;;;;16.98;11.48;;;2.20;99.90;;;;;;4986050;28;20054;-35
2024/01/06 07:22:22;;;;;;;25.80;13.98;;;2.20;99.90;;;;;;4968866;28;20058;-35
2024/01/06 07:24:47;;;;;;;21.75;12.07;;;2.20;99.90;;;;;;4986788;28;20054;-35
2024/01/06 07:27:13;;;;;;;22.77;13.05;;;2.20;99.90;;;;;;4987213;28;20058;-35
2024/01/06 07:29:39;;;;;;;23.13;13.77;;;2.20;99.90;;;;;;4987843;28;20351;-46
2024/01/06 07:32:07;;;;;;;23.67;14.15;;;2.20;99.90;;;;;;4966829;28;20137;-35
2024/01/06 07:34:35;;;;;;;28.00;15.48;;;2.20;99.90;;;;;;4987356;28;20058;-34
2024/01/06 07:37:01;;;;;;;32.72;15.75;;;2.20;99.90;;;;;;4970184;28;20466;-34
2024/01/06 07:39:27;;;;;;;28.38;15.85;;;2.20;99.90;;;;;;4971126;28;20058;-33
2024/01/06 07:41:52;;;;;;;24.10;14.80;;;2.20;99.90;;;;;;4967253;28;20046;-33
2024/01/06 07:44:24;;;;;;;23.77;14.52;;;2.20;99.90;;;;;;4980886;28;20057;-33
2024/01/06 07:46:50;;;;;;;24.00;14.43;;;2.20;99.90;;;;;;4983348;28;20038;-34
2024/01/06 07:49:16;;;;;;;24.70;14.30;;;2.20;99.90;;;;;;4986548;28;20038;-34
2024/01/06 07:51:42;;;;;;;18.98;11.63;;;2.20;99.90;;;;;;4988081;28;20482;-33
2024/01/06 07:54:09;;;;;;;17.48;11.05;;;2.20;99.90;;;;;;4961586;28;20069;-33
2024/01/06 07:56:35;;;;;;;15.32;9.75;;;2.30;99.90;;;;;;4986110;28;20053;-34
2024/01/06 07:59:04;;;;;;;18.63;10.15;;;2.30;99.90;;;;;;4983460;28;20048;-34
2024/01/06 08:01:31;;;;;;;15.98;9.77;;;2.20;99.90;;;;;;4985273;28;20046;-34
2024/01/06 08:03:59;;;;;;;16.20;10.02;;;2.20;99.90;;;;;;4988097;28;20050;-35
2024/01/06 08:06:25;;;;;;;13.90;9.43;;;2.20;99.90;;;;;;4987542;28;20058;-36
2024/01/06 08:08:51;;;;;;;16.05;10.00;;;2.20;99.90;;;;;;4988110;28;20172;-37
2024/01/06 08:11:16;;;;;;;16.08;9.63;;;2.30;99.90;;;;;;4986414;28;20486;-34
2024/01/06 08:13:42;;;;;;;15.65;9.90;;;2.20;99.90;;;;;;4989945;28;20042;-36
2024/01/06 08:16:08;;;;;;;17.80;10.32;;;2.20;99.90;;;;;;4991716;28;20054;-34
2024/01/06 08:18:33;;;;;;;13.82;9.82;;;2.20;99.90;;;;;;4989817;28;20161;-36
2024/01/06 08:20:59;;;;;;;17.73;10.38;;;2.20;99.90;;;;;;4984505;28;20054;-35
2024/01/06 08:23:25;;;;;;;15.90;9.50;;;2.20;99.90;;;;;;4987529;28;20128;-34
2024/01/06 08:25:51;;;;;;;15.15;8.80;;;2.20;99.90;;;;;;4986598;28;21093;-35
2024/01/06 08:28:18;;;;;;;18.67;11.38;;;2.20;99.90;;;;;;4984148;28;20051;-35
2024/01/06 08:30:44;;;;;;;19.75;12.75;;;2.20;99.90;;;;;;4970270;28;20072;-36
2024/01/06 08:33:10;;;;;;;17.45;10.52;;;2.20;99.90;;;;;;4985358;28;20555;-35
2024/01/06 08:35:40;;;;;;;16.52;10.40;;;2.20;99.90;;;;;;4984205;28;20791;-35
2024/01/06 08:38:09;;;;;;;19.10;11.55;;;2.20;99.90;;;;;;4984327;28;20192;-35
2024/01/06 08:40:35;;;;;;;15.30;11.07;;;2.20;99.90;;;;;;4987532;28;20060;-35
2024/01/06 08:43:01;;;;;;;16.77;10.60;;;2.30;99.90;;;;;;4987793;28;20054;-35
2024/01/06 08:45:27;;;;;;;14.48;9.50;;;2.30;99.90;;;;;;4982318;28;20500;-35
2024/01/06 08:47:53;;;;;;;15.52;9.88;;;2.30;99.90;;;;;;4982083;28;20137;-44
2024/01/06 08:50:18;;;;;;;13.27;9.57;;;2.30;99.90;;;;;;4985420;28;20058;-35
2024/01/06 08:52:44;;;;;;;13.77;9.77;;;2.30;99.90;;;;;;4984225;28;20061;-34
2024/01/06 08:55:10;;;;;;;14.27;9.00;;;2.30;99.90;;;;;;4985133;28;20483;-34
2024/01/06 08:57:36;;;;;;;13.52;9.70;;;2.30;99.90;;;;;;4985028;28;20137;-35
2024/01/06 09:00:06;;;;;;;12.35;9.35;;;2.30;99.90;;;;;;4981062;28;20046;-35
2024/01/06 09:02:32;;;;;;;13.30;9.27;;;2.30;99.90;;;;;;4983272;28;20488;-35
2024/01/06 09:04:57;;;;;;;15.43;10.63;;;2.30;99.90;;;;;;4966205;28;20128;-35
2024/01/06 09:07:23;;;;;;;14.82;9.75;;;2.30;99.90;;;;;;4967241;28;20412;-35
2024/01/06 09:09:48;;;;;;;14.70;10.32;;;2.30;99.90;;;;;;4985185;28;20113;-35
2024/01/06 09:12:14;;;;;;;13.45;9.35;;;2.30;99.90;;;;;;4981776;28;20050;-36
2024/01/06 09:14:40;;;;;;;13.30;9.48;;;2.30;99.90;;;;;;4984023;28;20061;-35
2024/01/06 09:17:06;;;;;;;13.32;9.48;;;2.30;99.90;;;;;;4986263;28;20138;-36
2024/01/06 09:19:32;;;;;;;15.60;10.07;;;2.30;99.90;;;;;;4982898;28;20400;-36
2024/01/06 09:21:57;;;;;;;13.75;9.65;;;2.40;99.90;;;;;;4986169;28;20068;-35
2024/01/06 09:24:23;;;;;;;15.75;10.18;;;2.30;99.90;;;;;;4986110;28;20053;-39
2024/01/06 09:26:52;;;;;;;13.13;9.98;;;2.40;99.90;;;;;;4983518;28;20569;-36
2024/01/06 09:29:17;;;;;;;13.40;9.57;;;2.40;99.90;;;;;;4966133;28;20058;-36
2024/01/06 09:31:43;;;;;;;13.85;9.82;;;2.40;99.90;;;;;;4980639;28;20054;-36
2024/01/06 09:34:12;;;;;;;13.27;9.57;;;2.40;99.90;;;;;;4985095;28;20506;-35
2024/01/06 09:36:38;;;;;;;12.77;10.05;;;2.40;99.90;;;;;;4965668;28;20133;-35
2024/01/06 09:39:04;;;;;;;13.98;10.10;;;2.40;99.90;;;;;;4985236;28;20038;-35
2024/01/06 09:41:31;;;;;;;14.02;10.15;;;2.40;99.90;;;;;;4980784;28;20524;-35
2024/01/06 09:43:56;;;;;;;14.77;10.77;;;2.50;99.90;;;;;;4983377;28;20488;-34
2024/01/06 09:46:29;;;;;;;13.65;10.70;;;2.40;99.90;;;;;;4959554;28;21711;-34
2024/01/06 09:48:56;;;;;;;15.05;11.18;;;2.40;99.90;;;;;;4982065;28;20042;-34
2024/01/06 09:51:22;;;;;;;15.35;11.32;;;2.50;99.90;;;;;;4981200;28;20057;-35
2024/01/06 09:53:58;;;;;;;14.38;10.85;;;2.50;99.90;;;;;;4987139;28;20411;-36
2024/01/06 09:56:26;;;;;;;17.02;11.10;;;2.50;99.90;;;;;;4962439;28;20615;-35
2024/01/06 09:58:51;;;;;;;14.93;11.27;;;2.50;99.90;;;;;;4969393;28;20496;-35
2024/01/06 10:01:18;;;;;;;15.35;11.93;;;2.50;99.90;;;;;;4985049;28;20065;-34
2024/01/06 10:03:45;;;;;;;15.20;11.43;;;2.60;99.90;;;;;;4988320;28;20057;-35
2024/01/06 10:06:12;;;;;;;14.65;11.32;;;2.60;99.90;;;;;;4969169;28;20127;-34
2024/01/06 10:08:40;;;;;;;15.38;12.15;;;2.50;99.90;;;;;;4982385;28;20496;-34
2024/01/06 10:11:10;;;;;;;15.90;11.68;;;2.50;99.90;;;;;;4982166;28;20073;-35
2024/01/06 10:13:38;;;;;;;16.15;11.57;;;2.60;99.90;;;;;;4982667;28;20108;-34
2024/01/06 10:16:05;;;;;;;17.30;12.20;;;2.60;99.90;;;;;;4984455;28;20129;-34
2024/01/06 10:18:31;;;;;;;16.83;11.90;;;2.60;99.90;;;;;;4982591;28;20054;-35
2024/01/06 10:20:57;;;;;;;15.60;12.20;;;2.60;99.90;;;;;;4962162;28;20074;-35
2024/01/06 10:23:24;;;;;;;15.90;12.27;;;2.60;99.90;;;;;;4981882;28;20909;-35
2024/01/06 10:25:55;;;;;;;16.83;12.48;;;2.60;99.90;;;;;;4985429;28;20052;-34
2024/01/06 10:28:22;;;;;;;16.13;12.77;;;2.70;99.90;;;;;;4982527;28;20116;-35
2024/01/06 10:30:51;;;;;;;16.63;12.73;;;2.70;99.90;;;;;;4983842;28;20554;-34
2024/01/06 10:33:16;;;;;;;16.90;12.85;;;2.70;99.90;;;;;;4982113;28;20058;-35
2024/01/06 10:35:42;;;;;;;17.55;13.13;;;2.70;99.90;;;;;;4976182;28;20588;-34
2024/01/06 10:38:08;;;;;;;18.25;13.35;;;2.70;99.90;;;;;;4982427;28;20060;-34
2024/01/06 10:40:34;;;;;;;16.75;12.88;;;2.80;99.90;;;;;;4981654;28;20105;-35
2024/01/06 10:43:01;;;;;;;17.90;12.80;;;2.70;99.90;;;;;;4981645;28;20054;-35
2024/01/06 10:45:28;;;;;;;15.52;12.50;;;2.70;99.90;;;;;;4985744;28;20176;-35
2024/01/06 10:47:55;;;;;;;17.05;13.40;;;2.70;99.90;;;;;;4988757;28;20061;-35
2024/01/06 10:50:21;;;;;;;20.02;14.95;;;2.70;99.90;;;;;;4968508;28;20165;-35
2024/01/06 10:52:48;;;;;;;18.17;13.88;;;2.70;99.90;;;;;;4980775;28;20054;-35
2024/01/06 10:55:17;;;;;;;17.35;13.10;;;2.70;99.90;;;;;;4984443;28;20104;-35
2024/01/06 10:57:46;;;;;;;15.30;12.32;;;2.70;99.90;;;;;;4967918;28;20480;-35
2024/01/06 11:00:13;;;;;;;15.10;12.38;;;2.70;99.90;;;;;;4985725;28;20046;-35
2024/01/06 11:02:42;;;;;;;14.13;11.88;;;2.70;99.90;;;;;;4980012;28;21662;-35
2024/01/06 11:05:10;;;;;;;13.77;10.90;;;2.70;99.90;;;;;;4967125;28;20073;-34
2024/01/06 11:07:37;;;;;;;13.38;10.98;;;2.70;99.90;;;;;;4984549;28;20054;-35
2024/01/06 11:10:24;;;;;;;12.18;10.20;;;2.70;99.90;;;;;;4977688;28;20366;-35
2024/01/06 11:13:11;;;;;;;13.30;10.75;;;2.80;99.90;;;;;;4975403;28;20060;-35
2024/01/06 11:16:05;;;;;;;12.00;10.75;;;2.80;99.90;;;;;;4985525;28;20507;-35
2024/01/06 11:18:33;;;;;;;13.48;11.70;;;2.70;99.90;;;;;;4985128;28;20046;-36
2024/01/06 11:21:14;;;;;;;14.32;11.05;;;2.70;99.90;;;;;;4983346;28;20607;-36
2024/01/06 11:23:43;;;;;;;12.63;11.32;;;2.70;99.90;;;;;;4985741;28;20467;-34
2024/01/06 11:26:09;;;;;;;11.55;9.85;;;2.70;99.90;;;;;;4983778;28;20057;-35
2024/01/06 11:28:47;;;;;;;12.32;9.30;;;2.70;99.90;;;;;;4984725;28;20467;-35
2024/01/06 11:31:13;;;;;;;13.00;9.63;;;2.70;99.90;;;;;;4985958;28;20437;-35
2024/01/06 11:33:43;;;;;;;12.27;9.57;;;2.60;99.90;;;;;;4985188;28;20046;-35
2024/01/06 11:36:10;;;;;;;14.40;10.13;;;2.70;99.90;;;;;;4986607;28;20065;-35
2024/01/06 11:38:40;;;;;;;13.50;10.45;;;2.70;99.90;;;;;;4985515;28;20598;-35
2024/01/06 11:41:11;;;;;;;13.25;9.88;;;2.70;99.90;;;;;;4987035;28;20350;-35
2024/01/06 11:43:39;;;;;;;12.30;9.70;;;2.60;99.90;;;;;;4982939;28;20133;-35
2024/01/06 11:46:07;;;;;;;12.95;9.15;;;2.60;99.90;;;;;;4986745;28;20054;-35
2024/01/06 11:48:33;;;;;;;12.25;9.10;;;2.60;99.90;;;;;;4981587;28;20480;-35
2024/01/06 11:50:59;;;;;;;12.38;9.68;;;2.60;99.90;;;;;;4987412;28;20126;-35
2024/01/06 11:53:27;;;;;;;12.20;9.48;;;2.60;99.90;;;;;;4986106;28;20119;-35
2024/01/06 11:55:53;;;;;;;12.32;9.27;;;2.60;99.90;;;;;;4986337;28;20047;-35
2024/01/06 11:58:19;;;;;;;12.07;9.27;;;2.60;99.90;;;;;;4987912;28;20411;-35
2024/01/06 12:00:56;;;;;;;12.45;9.15;;;2.60;99.90;;;;;;4987238;28;20074;-40
2024/01/06 12:03:23;;;;;;;13.40;10.50;;;2.60;99.90;;;;;;4988562;28;20141;-35
2024/01/06 12:06:02;;;;;;;12.95;9.70;;;2.60;99.90;;;;;;4983519;28;20515;-35
2024/01/06 12:08:29;;;;;;;12.38;9.15;;;2.60;99.90;;;;;;4985852;28;20484;-34
2024/01/06 12:11:17;;;;;;;11.90;9.50;;;2.60;99.90;;;;;;4989610;28;20058;-34
2024/01/06 12:13:42;;;;;;;13.85;10.45;;;2.60;99.90;;;;;;4983578;28;20098;-34
2024/01/06 12:16:09;;;;;;;13.95;10.23;;;2.70;99.90;;;;;;4980403;28;20062;-35
2024/01/06 12:18:35;;;;;;;13.18;10.35;;;2.70;99.90;;;;;;4983214;28;20133;-38
2024/01/06 12:21:02;;;;;;;13.10;9.65;;;2.70;99.90;;;;;;4986356;28;20132;-34
2024/01/06 12:23:28;;;;;;;13.88;9.38;;;2.70;99.90;;;;;;4984592;28;20455;-34
2024/01/06 12:25:55;;;;;;;12.60;9.75;;;2.70;99.90;;;;;;4983662;28;20050;-35
2024/01/06 12:28:20;;;;;;;15.23;10.82;;;2.70;99.90;;;;;;4985585;28;20073;-34
2024/01/06 12:30:46;;;;;;;12.25;9.70;;;2.70;99.90;;;;;;4983659;28;20062;-35
2024/01/06 12:33:13;;;;;;;11.63;8.98;;;2.80;99.90;;;;;;4983552;28;20141;-35
2024/01/06 12:35:39;;;;;;;11.55;9.20;;;2.80;99.90;;;;;;4982685;28;20241;-35
2024/01/06 12:38:08;;;;;;;12.35;9.68;;;2.80;99.90;;;;;;4982652;28;20062;-35